createdAt,value
2022-11-25T00:00:32.556Z,17.01
2022-11-25T00:02:59.223Z,17.02
2022-11-25T00:05:26.873Z,16.98
2022-11-25T00:07:53.545Z,17.01
2022-11-25T00:10:21.009Z,17.02
2022-11-25T00:12:48.031Z,17.02
2022-11-25T00:15:15.157Z,16.99
2022-11-25T00:17:42.167Z,16.98
2022-11-25T00:20:09.221Z,16.99
2022-11-25T00:22:36.264Z,16.97
2022-11-25T00:25:03.344Z,16.95
2022-11-25T00:27:30.023Z,16.95
2022-11-25T00:29:56.556Z,16.92
2022-11-25T00:32:23.398Z,16.91
2022-11-25T00:34:50.044Z,16.93
2022-11-25T00:37:16.631Z,16.90
2022-11-25T00:39:43.122Z,16.79
2022-11-25T00:42:29.516Z,16.86
2022-11-25T00:44:56.970Z,16.88
2022-11-25T00:47:23.726Z,16.85
2022-11-25T00:49:52.980Z,16.87
2022-11-25T00:52:27.157Z,16.84
2022-11-25T00:54:54.628Z,16.87
2022-11-25T00:57:23.960Z,16.86
2022-11-25T00:59:51.030Z,16.84
2022-11-25T01:02:19.368Z,16.81
2022-11-25T01:04:46.974Z,16.78
2022-11-25T01:07:15.475Z,16.82
2022-11-25T01:09:42.102Z,16.81
2022-11-25T01:12:09.327Z,16.82
2022-11-25T01:14:37.034Z,16.79
2022-11-25T01:17:04.519Z,16.81
2022-11-25T01:19:31.543Z,16.73
2022-11-25T01:21:58.130Z,16.79
2022-11-25T01:24:26.433Z,16.79
2022-11-25T01:26:55.698Z,16.78
2022-11-25T01:29:22.863Z,16.77
2022-11-25T01:31:49.532Z,16.76
2022-11-25T01:34:25.805Z,16.76
2022-11-25T01:36:52.845Z,16.74
2022-11-25T01:39:28.408Z,16.75
2022-11-25T01:41:59.020Z,16.74
2022-11-25T01:44:31.223Z,16.70
2022-11-25T01:47:15.844Z,16.74
2022-11-25T01:50:05.180Z,16.74
2022-11-25T01:52:35.312Z,16.70
2022-11-25T01:55:15.834Z,16.73
2022-11-25T01:58:00.553Z,16.71
2022-11-25T02:00:27.189Z,16.69
2022-11-25T02:02:55.562Z,16.70
2022-11-25T02:05:33.661Z,16.67
2022-11-25T02:08:01.627Z,16.70
2022-11-25T02:10:32.165Z,16.67
2022-11-25T02:13:00.086Z,16.68
2022-11-25T02:15:28.821Z,16.62
2022-11-25T02:17:55.789Z,16.67
2022-11-25T02:20:23.964Z,16.67
2022-11-25T02:23:16.866Z,16.68
2022-11-25T02:25:44.336Z,16.67
2022-11-25T02:28:14.767Z,16.66
2022-11-25T02:30:42.621Z,16.67
2022-11-25T02:33:10.045Z,16.67
2022-11-25T02:36:02.192Z,16.67
2022-11-25T02:38:43.008Z,16.65
2022-11-25T02:41:21.438Z,16.65
2022-11-25T02:43:48.625Z,16.65
2022-11-25T02:46:22.654Z,16.65
2022-11-25T02:51:41.290Z,16.66
2022-11-25T02:54:07.978Z,16.65
2022-11-25T02:56:35.732Z,16.65
2022-11-25T02:59:03.133Z,16.57
2022-11-25T03:01:31.602Z,16.66
2022-11-25T03:03:59.049Z,16.63
2022-11-25T03:06:26.046Z,16.66
2022-11-25T03:08:52.579Z,16.64
2022-11-25T03:11:19.301Z,16.65
2022-11-25T03:13:45.901Z,16.64
2022-11-25T03:16:12.997Z,16.66
2022-11-25T03:18:39.991Z,16.65
2022-11-25T03:21:07.443Z,16.65
2022-11-25T03:23:34.449Z,16.65
2022-11-25T03:26:06.107Z,16.65
2022-11-25T03:28:32.674Z,16.63
2022-11-25T03:30:59.187Z,16.65
2022-11-25T03:33:26.147Z,16.64
2022-11-25T03:35:53.630Z,16.64
2022-11-25T03:38:22.340Z,16.60
2022-11-25T03:40:49.360Z,16.62
2022-11-25T03:43:15.940Z,16.64
2022-11-25T03:45:43.110Z,16.64
2022-11-25T03:48:10.191Z,16.64
2022-11-25T03:50:36.683Z,16.62
2022-11-25T03:53:03.653Z,16.63
2022-11-25T03:55:30.669Z,16.62
2022-11-25T03:57:57.750Z,16.62
2022-11-25T04:00:24.916Z,16.62
2022-11-25T04:02:52.032Z,16.63
2022-11-25T04:05:19.126Z,16.62
2022-11-25T04:07:45.813Z,16.63
2022-11-25T04:10:12.614Z,16.56
2022-11-25T04:12:48.760Z,16.62
2022-11-25T04:15:18.661Z,16.62
2022-11-25T04:17:45.856Z,16.62
2022-11-25T04:20:13.881Z,16.60
2022-11-25T04:22:41.629Z,16.57
2022-11-25T04:25:09.912Z,16.60
2022-11-25T04:27:36.566Z,16.60
2022-11-25T04:30:03.407Z,16.59
2022-11-25T04:32:30.420Z,16.51
2022-11-25T04:34:56.938Z,16.58
2022-11-25T04:37:23.935Z,16.57
2022-11-25T04:39:50.644Z,16.59
2022-11-25T04:42:32.275Z,16.59
2022-11-25T04:45:21.984Z,16.58
2022-11-25T04:47:47.152Z,16.57
2022-11-25T04:50:17.677Z,16.58
2022-11-25T04:52:44.911Z,16.55
2022-11-25T04:55:11.968Z,16.56
2022-11-25T04:57:38.919Z,16.50
2022-11-25T05:00:07.919Z,16.53
2022-11-25T05:02:34.715Z,16.52
2022-11-25T05:05:01.507Z,16.51
2022-11-25T05:07:28.746Z,16.50
2022-11-25T05:09:55.908Z,16.47
2022-11-25T05:12:25.960Z,16.43
2022-11-25T05:14:53.408Z,16.44
2022-11-25T05:17:23.175Z,16.46
2022-11-25T05:19:50.579Z,16.43
2022-11-25T05:22:23.010Z,16.43
2022-11-25T05:24:49.664Z,16.40
2022-11-25T05:27:16.973Z,16.44
2022-11-25T05:29:44.333Z,16.43
2022-11-25T05:32:11.248Z,16.42
2022-11-25T05:34:39.026Z,16.41
2022-11-25T05:37:06.888Z,16.33
2022-11-25T05:39:33.412Z,16.38
2022-11-25T05:42:00.484Z,16.37
2022-11-25T05:44:27.465Z,16.34
2022-11-25T05:46:54.006Z,16.31
2022-11-25T05:49:21.139Z,16.29
2022-11-25T05:51:48.357Z,16.31
2022-11-25T05:54:16.123Z,16.32
2022-11-25T05:56:42.656Z,16.31
2022-11-25T05:59:09.699Z,16.30
2022-11-25T06:01:36.677Z,16.31
2022-11-25T06:04:04.616Z,16.28
2022-11-25T06:06:32.251Z,16.30
2022-11-25T06:08:59.459Z,16.34
2022-11-25T06:11:26.616Z,16.31
2022-11-25T06:13:53.892Z,16.34
2022-11-25T06:16:22.979Z,16.39
2022-11-25T06:18:49.761Z,16.35
2022-11-25T06:21:17.518Z,16.38
2022-11-25T06:23:46.189Z,16.38
2022-11-25T06:26:23.523Z,16.38
2022-11-25T06:28:53.705Z,16.37
2022-11-25T06:31:23.307Z,16.35
2022-11-25T06:33:51.812Z,16.39
2022-11-25T06:36:20.691Z,16.42
2022-11-25T06:38:50.316Z,16.40
2022-11-25T06:41:17.624Z,16.42
2022-11-25T06:43:44.446Z,16.42
2022-11-25T06:46:16.439Z,16.42
2022-11-25T06:48:46.855Z,16.43
2022-11-25T06:51:15.224Z,16.42
2022-11-25T06:53:43.115Z,16.46
2022-11-25T06:56:14.468Z,16.43
2022-11-25T06:58:42.501Z,16.47
2022-11-25T07:01:14.629Z,16.47
2022-11-25T07:03:42.268Z,16.48
2022-11-25T07:06:09.799Z,16.49
2022-11-25T07:08:36.817Z,16.47
2022-11-25T07:11:08.868Z,16.50
2022-11-25T07:13:35.492Z,16.50
2022-11-25T07:16:06.620Z,16.50
2022-11-25T07:18:35.844Z,16.51
2022-11-25T07:21:07.916Z,16.52
2022-11-25T07:23:36.222Z,16.50
2022-11-25T07:26:08.978Z,16.52
2022-11-25T07:28:36.348Z,16.51
2022-11-25T07:31:23.140Z,16.52
2022-11-25T07:33:59.565Z,16.52
2022-11-25T07:36:27.291Z,16.52
2022-11-25T07:38:54.225Z,16.52
2022-11-25T07:41:23.956Z,16.53
2022-11-25T07:43:56.002Z,16.53
2022-11-25T07:46:27.719Z,16.54
2022-11-25T07:49:00.190Z,16.53
2022-11-25T07:51:30.616Z,16.54
2022-11-25T07:53:58.531Z,16.55
2022-11-25T07:56:25.634Z,16.53
2022-11-25T07:58:52.170Z,16.56
2022-11-25T08:01:19.856Z,16.56
2022-11-25T08:03:48.397Z,16.55
2022-11-25T08:06:18.978Z,16.54
2022-11-25T08:08:46.074Z,16.53
2022-11-25T08:11:15.673Z,16.52
2022-11-25T08:13:42.667Z,16.53
2022-11-25T08:16:11.542Z,16.48
2022-11-25T08:18:38.419Z,16.53
2022-11-25T08:21:07.064Z,16.53
2022-11-25T08:23:34.420Z,16.55
2022-11-25T08:26:12.558Z,16.58
2022-11-25T08:28:41.390Z,16.48
2022-11-25T08:31:16.685Z,16.57
2022-11-25T08:33:44.483Z,16.65
2022-11-25T08:36:12.524Z,16.68
2022-11-25T08:38:39.996Z,16.66
2022-11-25T08:41:15.398Z,16.76
2022-11-25T08:43:42.536Z,16.78
2022-11-25T08:46:18.488Z,16.81
2022-11-25T08:48:45.830Z,16.78
2022-11-25T08:51:16.696Z,16.87
2022-11-25T08:53:44.465Z,16.91
2022-11-25T08:56:12.228Z,16.91
2022-11-25T08:58:39.265Z,16.95
2022-11-25T09:01:07.562Z,16.99
2022-11-25T09:03:39.940Z,16.99
2022-11-25T09:06:08.031Z,17.00
2022-11-25T09:08:35.560Z,17.05
2022-11-25T09:11:02.266Z,17.07
2022-11-25T09:13:29.232Z,17.08
2022-11-25T09:16:02.764Z,17.13
2022-11-25T09:18:31.555Z,17.15
2022-11-25T09:20:59.950Z,17.16
2022-11-25T09:23:27.117Z,17.15
2022-11-25T09:26:00.156Z,17.16
2022-11-25T09:28:27.277Z,17.22
2022-11-25T09:30:53.982Z,17.22
2022-11-25T09:33:21.297Z,17.24
2022-11-25T09:35:48.625Z,17.27
2022-11-25T09:38:15.172Z,17.24
2022-11-25T09:41:03.844Z,17.27
2022-11-25T09:43:48.790Z,17.30
2022-11-25T09:46:43.548Z,17.30
2022-11-25T09:49:18.926Z,17.33
2022-11-25T09:51:56.413Z,17.33
2022-11-25T09:54:38.642Z,17.35
2022-11-25T09:57:27.068Z,17.39
2022-11-25T10:00:03.469Z,17.37
2022-11-25T10:02:40.474Z,17.42
2022-11-25T10:05:23.333Z,17.43
2022-11-25T10:07:54.516Z,17.44
2022-11-25T10:10:28.208Z,17.42
2022-11-25T10:12:58.211Z,17.45
2022-11-25T10:15:30.382Z,17.49
2022-11-25T10:18:05.047Z,17.45
2022-11-25T10:20:36.490Z,17.45
2022-11-25T10:23:05.098Z,17.51
2022-11-25T10:25:38.013Z,17.48
2022-11-25T10:28:19.488Z,17.51
2022-11-25T10:30:53.656Z,17.52
2022-11-25T10:33:27.235Z,17.53
2022-11-25T10:36:00.320Z,17.54
2022-11-25T10:38:59.423Z,17.54
2022-11-25T10:41:31.292Z,17.49
2022-11-25T10:43:57.913Z,17.45
2022-11-25T10:47:10.890Z,17.55
2022-11-25T10:49:36.102Z,17.56
2022-11-25T10:52:11.184Z,17.58
2022-11-25T10:54:38.231Z,17.56
2022-11-25T10:57:18.357Z,17.57
2022-11-25T10:59:59.144Z,17.58
2022-11-25T11:02:28.934Z,17.58
2022-11-25T11:05:10.394Z,17.58
2022-11-25T11:07:38.646Z,17.58
2022-11-25T11:10:23.197Z,17.58
2022-11-25T11:13:03.207Z,17.58
2022-11-25T11:15:33.924Z,17.58
2022-11-25T11:18:23.557Z,17.58
2022-11-25T11:20:53.209Z,17.59
2022-11-25T11:23:20.316Z,17.59
2022-11-25T11:26:09.628Z,17.61
2022-11-25T11:28:37.069Z,17.61
2022-11-25T11:31:16.199Z,17.62
2022-11-25T11:33:51.484Z,17.63
2022-11-25T11:36:36.644Z,17.63
2022-11-25T11:39:48.391Z,17.63
2022-11-25T11:42:37.244Z,17.63
2022-11-25T11:45:27.420Z,17.60
2022-11-25T11:47:54.094Z,17.65
2022-11-25T11:50:32.484Z,17.65
2022-11-25T11:53:18.953Z,17.67
2022-11-25T11:56:05.636Z,17.66
2022-11-25T11:58:55.295Z,17.68
2022-11-25T12:01:34.981Z,17.68
2022-11-25T12:04:26.199Z,17.67
2022-11-25T12:07:18.004Z,17.68
2022-11-25T12:09:55.520Z,17.67
2022-11-25T12:12:32.827Z,17.65
2022-11-25T12:15:21.488Z,17.60
2022-11-25T12:18:00.306Z,17.69
2022-11-25T12:20:41.288Z,17.66
2022-11-25T12:23:19.810Z,17.72
2022-11-25T12:25:52.031Z,17.72
2022-11-25T12:28:25.889Z,17.72
2022-11-25T12:31:05.163Z,17.72
2022-11-25T12:33:53.020Z,17.74
2022-11-25T12:36:28.807Z,17.73
2022-11-25T12:38:56.610Z,17.73
2022-11-25T12:41:55.417Z,17.74
2022-11-25T12:44:30.663Z,17.69
2022-11-25T12:46:58.611Z,17.75
2022-11-25T12:49:30.979Z,17.75
2022-11-25T12:52:03.405Z,17.77
2022-11-25T12:54:48.366Z,17.76
2022-11-25T12:57:54.389Z,17.73
2022-11-25T13:00:41.536Z,17.77
2022-11-25T13:03:29.862Z,17.78
2022-11-25T13:06:38.706Z,17.78
2022-11-25T13:09:33.533Z,17.78
2022-11-25T13:12:03.453Z,17.78
2022-11-25T13:14:55.672Z,17.79
2022-11-25T13:17:24.047Z,17.77
2022-11-25T13:20:28.710Z,17.80
2022-11-25T13:23:23.644Z,17.79
2022-11-25T13:25:52.827Z,17.80
2022-11-25T13:28:37.289Z,17.78
2022-11-25T13:31:16.401Z,17.83
2022-11-25T13:33:42.929Z,17.84
2022-11-25T13:36:21.632Z,17.84
2022-11-25T13:38:51.378Z,17.85
2022-11-25T13:41:23.239Z,17.87
2022-11-25T13:44:01.748Z,17.86
2022-11-25T13:46:42.364Z,17.86
2022-11-25T13:49:42.701Z,17.87
2022-11-25T13:52:11.968Z,17.88
2022-11-25T13:55:00.595Z,17.88
2022-11-25T13:57:40.507Z,17.83
2022-11-25T14:00:16.044Z,17.90
2022-11-25T14:02:47.397Z,17.86
2022-11-25T14:05:39.084Z,17.90
2022-11-25T14:08:26.081Z,17.93
2022-11-25T14:11:03.977Z,17.94
2022-11-25T14:13:56.661Z,17.96
2022-11-25T14:17:00.405Z,17.97
2022-11-25T14:20:01.124Z,17.98
2022-11-25T14:22:43.026Z,18.00
2022-11-25T14:25:19.749Z,18.00
2022-11-25T14:28:03.512Z,17.97
2022-11-25T14:30:31.562Z,18.01
2022-11-25T14:33:06.166Z,18.04
2022-11-25T14:35:43.501Z,18.03
2022-11-25T14:38:32.811Z,18.03
2022-11-25T14:41:08.244Z,18.08
2022-11-25T14:43:42.545Z,18.05
2022-11-25T14:46:23.566Z,18.05
2022-11-25T14:48:59.222Z,18.10
2022-11-25T14:51:28.846Z,18.08
2022-11-25T14:53:55.533Z,18.08
2022-11-25T14:56:27.070Z,18.12
2022-11-25T14:58:56.588Z,18.15
2022-11-25T15:01:29.496Z,18.15
2022-11-25T15:04:07.978Z,18.17
2022-11-25T15:06:41.416Z,18.17
2022-11-25T15:09:33.519Z,18.18
2022-11-25T15:12:19.445Z,18.19
2022-11-25T15:14:52.085Z,18.19
2022-11-25T15:17:33.183Z,18.19
2022-11-25T15:20:04.026Z,18.19
2022-11-25T15:22:31.109Z,18.20
2022-11-25T15:25:09.908Z,18.19
2022-11-25T15:27:44.940Z,18.19
2022-11-25T15:30:23.471Z,18.19
2022-11-25T15:32:51.316Z,18.17
2022-11-25T15:35:25.253Z,18.19
2022-11-25T15:37:54.387Z,18.17
2022-11-25T15:40:36.760Z,18.17
2022-11-25T15:43:07.023Z,18.16
2022-11-25T15:45:48.481Z,18.13
2022-11-25T15:48:26.012Z,18.16
2022-11-25T15:50:52.898Z,18.13
2022-11-25T15:53:33.034Z,18.11
2022-11-25T15:56:02.028Z,18.10
2022-11-25T15:58:29.377Z,18.13
2022-11-25T16:01:15.467Z,18.13
2022-11-25T16:03:42.170Z,18.11
2022-11-25T16:06:28.461Z,18.12
2022-11-25T16:08:56.487Z,18.09
2022-11-25T16:11:25.508Z,18.07
2022-11-25T16:13:53.479Z,18.08
2022-11-25T16:16:31.033Z,18.08
2022-11-25T16:19:13.364Z,18.05
2022-11-25T16:22:00.496Z,18.06
2022-11-25T16:24:33.448Z,18.05
2022-11-25T16:27:24.418Z,18.04
2022-11-25T16:30:18.406Z,18.05
2022-11-25T16:32:45.455Z,18.04
2022-11-25T16:35:15.324Z,18.00
2022-11-25T16:37:47.024Z,18.00
2022-11-25T16:40:16.947Z,18.02
2022-11-25T16:42:48.920Z,18.02
2022-11-25T16:45:22.444Z,17.96
2022-11-25T16:47:49.537Z,17.98
2022-11-25T16:50:17.960Z,17.99
2022-11-25T16:52:44.652Z,18.00
2022-11-25T16:55:11.544Z,17.97
2022-11-25T16:57:39.328Z,17.99
2022-11-25T17:00:12.167Z,17.98
2022-11-25T17:02:38.934Z,17.95
2022-11-25T17:05:20.800Z,17.93
2022-11-25T17:07:48.907Z,17.94
2022-11-25T17:10:16.422Z,17.93
2022-11-25T17:12:45.224Z,17.92
2022-11-25T17:15:18.547Z,17.92
2022-11-25T17:17:47.865Z,17.92
2022-11-25T17:20:21.834Z,17.93
2022-11-25T17:22:49.511Z,17.90
2022-11-25T17:25:16.304Z,17.89
2022-11-25T17:27:43.627Z,17.87
2022-11-25T17:30:19.756Z,17.87
2022-11-25T17:32:48.175Z,17.86
2022-11-25T17:35:19.356Z,17.87
2022-11-25T17:37:47.356Z,17.84
2022-11-25T17:40:14.582Z,17.80
2022-11-25T17:42:42.887Z,17.84
2022-11-25T17:45:21.228Z,17.83
2022-11-25T17:47:47.927Z,17.81
2022-11-25T17:50:19.595Z,17.72
2022-11-25T17:52:46.450Z,17.79
2022-11-25T17:55:13.791Z,17.80
2022-11-25T17:57:40.491Z,17.79
2022-11-25T18:00:12.007Z,17.78
2022-11-25T18:02:39.040Z,17.77
2022-11-25T18:05:24.005Z,17.78
2022-11-25T18:07:51.333Z,17.76
2022-11-25T18:10:21.252Z,17.77
2022-11-25T18:12:51.886Z,17.73
2022-11-25T18:15:22.623Z,17.73
2022-11-25T18:17:50.506Z,17.75
2022-11-25T18:20:23.395Z,17.74
2022-11-25T18:22:53.599Z,17.75
2022-11-25T18:25:25.028Z,17.74
2022-11-25T18:27:56.195Z,17.69
2022-11-25T18:30:34.847Z,17.73
2022-11-25T18:33:01.980Z,17.71
2022-11-25T18:35:36.050Z,17.71
2022-11-25T18:38:03.802Z,17.72
2022-11-25T18:40:30.850Z,17.69
2022-11-25T18:43:01.001Z,17.69
2022-11-25T18:45:31.204Z,17.69
2022-11-25T18:47:57.860Z,17.67
2022-11-25T18:50:27.079Z,17.68
2022-11-25T18:52:54.550Z,17.51
2022-11-25T18:55:23.210Z,17.67
2022-11-25T18:57:52.249Z,17.67
2022-11-25T19:00:33.385Z,17.64
2022-11-25T19:03:00.970Z,17.67
2022-11-25T19:05:33.775Z,17.66
2022-11-25T19:08:01.455Z,17.65
2022-11-25T19:10:31.596Z,17.66
2022-11-25T19:13:03.372Z,17.65
2022-11-25T19:15:29.937Z,17.66
2022-11-25T19:18:02.649Z,17.64
2022-11-25T19:20:30.291Z,17.63
2022-11-25T19:23:00.993Z,17.62
2022-11-25T19:25:28.372Z,17.62
2022-11-25T19:27:58.477Z,17.56
2022-11-25T19:30:27.798Z,17.58
2022-11-25T19:32:58.063Z,17.60
2022-11-25T19:35:42.808Z,17.60
2022-11-25T19:38:21.386Z,17.53
2022-11-25T19:40:49.415Z,17.59
2022-11-25T19:43:16.478Z,17.59
2022-11-25T19:45:44.557Z,17.56
2022-11-25T19:48:17.832Z,17.56
2022-11-25T19:50:47.184Z,17.56
2022-11-25T19:53:19.232Z,17.56
2022-11-25T19:55:46.186Z,17.54
2022-11-25T19:58:13.920Z,17.55
2022-11-25T20:00:43.088Z,17.52
2022-11-25T20:03:20.224Z,17.51
2022-11-25T20:05:49.039Z,17.52
2022-11-25T20:08:24.842Z,17.52
2022-11-25T20:10:51.857Z,17.49
2022-11-25T20:13:19.088Z,17.50
2022-11-25T20:15:46.223Z,17.50
2022-11-25T20:18:20.318Z,17.50
2022-11-25T20:20:49.822Z,17.44
2022-11-25T20:23:27.990Z,17.47
2022-11-25T20:25:56.268Z,17.49
2022-11-25T20:28:25.552Z,17.46
2022-11-25T20:30:53.386Z,17.46
2022-11-25T20:33:24.317Z,17.48
2022-11-25T20:35:58.812Z,17.41
2022-11-25T20:38:27.857Z,17.42
2022-11-25T20:40:58.012Z,17.46
2022-11-25T20:43:28.048Z,17.45
2022-11-25T20:45:55.232Z,17.34
2022-11-25T20:48:22.902Z,17.45
2022-11-25T20:50:49.715Z,17.43
2022-11-25T20:53:19.018Z,17.41
2022-11-25T20:55:47.459Z,17.42
2022-11-25T20:58:22.339Z,17.42
2022-11-25T21:00:54.135Z,17.40
2022-11-25T21:03:23.619Z,17.41
2022-11-25T21:05:51.298Z,17.41
2022-11-25T21:08:22.580Z,17.40
2022-11-25T21:10:52.289Z,17.37
2022-11-25T21:13:24.494Z,17.40
2022-11-25T21:15:53.271Z,17.39
2022-11-25T21:18:21.206Z,17.38
2022-11-25T21:20:49.648Z,17.39
2022-11-25T21:23:23.141Z,17.38
2022-11-25T21:25:51.079Z,17.36
2022-11-25T21:28:20.590Z,17.36
2022-11-25T21:30:47.696Z,17.37
2022-11-25T21:33:15.595Z,17.35
2022-11-25T21:35:45.674Z,17.36
2022-11-25T21:38:17.832Z,17.33
2022-11-25T21:40:47.450Z,17.36
2022-11-25T21:43:21.769Z,17.35
2022-11-25T21:45:52.709Z,17.33
2022-11-25T21:48:25.692Z,17.35
2022-11-25T21:50:53.504Z,17.35
2022-11-25T21:53:20.258Z,17.25
2022-11-25T21:55:47.798Z,17.34
2022-11-25T21:58:29.706Z,17.29
2022-11-25T22:01:01.695Z,17.30
2022-11-25T22:03:31.055Z,17.31
2022-11-25T22:05:57.632Z,17.31
2022-11-25T22:08:24.705Z,17.31
2022-11-25T22:10:52.921Z,17.29
2022-11-25T22:13:27.453Z,17.21
2022-11-25T22:15:57.200Z,17.30
2022-11-25T22:18:30.744Z,17.30
2022-11-25T22:20:58.073Z,17.27
2022-11-25T22:23:25.239Z,17.29
2022-11-25T22:25:52.506Z,17.28
2022-11-25T22:28:21.924Z,17.28
2022-11-25T22:30:55.113Z,17.28
2022-11-25T22:33:28.792Z,17.25
2022-11-25T22:35:55.286Z,17.27
2022-11-25T22:38:22.519Z,17.24
2022-11-25T22:40:57.557Z,17.24
2022-11-25T22:43:30.874Z,17.19
2022-11-25T22:45:58.123Z,17.23
2022-11-25T22:48:32.211Z,17.24
2022-11-25T22:50:59.133Z,17.23
2022-11-25T22:53:26.210Z,17.23
2022-11-25T22:55:58.139Z,17.22
2022-11-25T22:58:28.430Z,17.20
2022-11-25T23:00:57.277Z,17.21
2022-11-25T23:03:29.229Z,17.20
2022-11-25T23:05:56.881Z,17.22
2022-11-25T23:08:26.928Z,17.16
2022-11-25T23:10:54.596Z,17.16
2022-11-25T23:13:21.603Z,17.14
2022-11-25T23:15:53.815Z,17.18
2022-11-25T23:18:36.797Z,17.17
2022-11-25T23:21:17.419Z,17.14
2022-11-25T23:23:44.632Z,17.14
2022-11-25T23:26:16.028Z,17.10
2022-11-25T23:28:42.737Z,17.14
2022-11-25T23:31:13.087Z,17.11
2022-11-25T23:33:51.385Z,17.11
2022-11-25T23:36:27.676Z,17.09
2022-11-25T23:39:01.029Z,17.09
2022-11-25T23:41:35.233Z,17.02
2022-11-25T23:44:30.772Z,17.07
2022-11-25T23:47:03.286Z,17.06
2022-11-25T23:49:37.137Z,17.06
2022-11-25T23:52:07.978Z,16.98
2022-11-25T23:54:42.521Z,17.00
2022-11-25T23:57:23.068Z,16.99
2022-11-25T23:59:50.481Z,16.97
